Pagina principale
METAR-TAF:

METAR-TAF

Aeroporti :

Milano, Italia

Aeroporto di Milano-Linate

latitudine: 45-26N, longitudine: 009-17E, altezza: 107 m

Osservazione

Il bollettino è stato emesso 21 minuti fa, alle 09:20 UTC
Vento 3 kt da direzioni variabili
Temperature 27°C
Umidità 37%
Pressione 1017 hPa
Visibilità 10 km o più
nessuna nube inferiore a 1500 m e nessun cumulonembo

METAR: LIML 290920Z VRB03KT CAVOK 27/11 Q1017 NOSIG

Ora: 11:41 (09:41 UTC)

Previsione

Il bollettino è stato emesso 4 ore e 41 minuti fa, alle 05:00 UTC
Previsione valida dal 29 alle 06 UTC al 30 alle 06 UTC
Vento 5 kt da est
Visibilità 10 km o più
Nubi sparse ad un'altezza di 7000 ft

TAF: LIML 290500Z 2906/3006 09005KT 9999 SCT070

Osservazioni e previsioni meteorologiche di più di 4000 aeroporti (messaggi METAR e TAF).

Le stazioni disponibili sono rappresentate dai dischi gialli e rossi sulla carta.

Puntare il mouse per vedere il nome della stazione.

Clicca sopra per visualizzare le osservazioni e previsioni meteorologiche.

Per cambiare la mappa : fare clic sui pulsanti verdi con una croce nera per ingrandire, il pulsante verde con un trattino per diminuire, o sulla freccia verde per le mappe adiacenti.


METAR-TAF: